createdAt,value
2023-04-25T00:00:35.877Z,-11232.75
2023-04-25T00:03:42.392Z,-11231.50
2023-04-25T00:06:48.868Z,-11232.63
2023-04-25T00:09:56.576Z,-11233.59
2023-04-25T00:13:04.121Z,-11233.19
2023-04-25T00:16:10.465Z,-11233.47
2023-04-25T00:19:16.783Z,-11226.72
2023-04-25T00:22:23.485Z,-11230.94
2023-04-25T00:25:31.193Z,-11227.13
2023-04-25T00:28:37.404Z,-11226.00
2023-04-25T00:31:43.413Z,-11222.63
2023-04-25T00:34:49.662Z,-11216.16
2023-04-25T00:37:56.862Z,-11214.63
2023-04-25T00:41:04.347Z,-11220.38
2023-04-25T00:44:12.510Z,-11227.56
2023-04-25T00:47:18.842Z,-11228.13
2023-04-25T00:50:25.017Z,-11229.09
2023-04-25T00:53:33.192Z,-11220.38
2023-04-25T00:56:40.827Z,-11230.94
2023-04-25T00:59:47.950Z,-11230.50
2023-04-25T01:02:55.277Z,-11226.00
2023-04-25T01:06:01.598Z,-11230.38
2023-04-25T01:09:07.626Z,-11230.22
2023-04-25T01:12:15.759Z,-11226.84
2023-04-25T01:15:21.986Z,-11221.50
2023-04-25T01:18:28.106Z,-11221.94
2023-04-25T01:21:36.066Z,-11222.91
2023-04-25T01:24:42.578Z,-11225.72
2023-04-25T01:27:49.234Z,-11222.78
2023-04-25T01:30:56.654Z,-11221.09
2023-04-25T01:34:03.416Z,-11223.75
2023-04-25T01:37:11.234Z,-11222.63
2023-04-25T01:40:18.569Z,-11219.25
2023-04-25T01:43:24.873Z,-11217.84
2023-04-25T01:46:31.975Z,-11214.19
2023-04-25T01:49:38.474Z,-11218.13
2023-04-25T01:52:46.111Z,-11215.75
2023-04-25T01:55:52.631Z,-11217.84
2023-04-25T01:58:59.444Z,-11216.59
2023-04-25T02:02:05.995Z,-11219.81
2023-04-25T02:05:11.877Z,-11220.94
2023-04-25T02:08:20.103Z,-11220.53
2023-04-25T02:11:26.431Z,-11221.22
2023-04-25T02:14:32.538Z,-11218.56
2023-04-25T02:17:39.057Z,-11220.81
2023-04-25T02:20:46.056Z,-11214.47
2023-04-25T02:23:53.869Z,-11206.19
2023-04-25T02:27:00.633Z,-11212.22
2023-04-25T02:30:08.301Z,-11206.03
2023-04-25T02:33:14.520Z,-11215.75
2023-04-25T02:36:21.270Z,-11214.91
2023-04-25T02:39:28.761Z,-11218.56
2023-04-25T02:42:35.120Z,-11218.69
2023-04-25T02:45:41.438Z,-11216.16
2023-04-25T02:48:47.965Z,-11215.31
2023-04-25T02:51:54.288Z,-11216.16
2023-04-25T02:55:02.006Z,-11210.81
2023-04-25T02:58:08.459Z,-11212.78
2023-04-25T03:01:14.616Z,-11210.13
2023-04-25T03:04:22.054Z,-11202.66
2023-04-25T03:07:28.421Z,-11203.78
2023-04-25T03:10:35.870Z,-11209.69
2023-04-25T03:13:42.263Z,-11203.38
2023-04-25T03:16:48.269Z,-11209.69
2023-04-25T03:19:54.655Z,-11205.75
2023-04-25T03:23:00.850Z,-11201.53
2023-04-25T03:26:08.613Z,-11204.22
2023-04-25T03:29:14.728Z,-11206.03
2023-04-25T03:32:21.425Z,-11212.22
2023-04-25T03:35:27.857Z,-11213.06
2023-04-25T03:38:34.584Z,-11214.75
2023-04-25T03:41:42.446Z,-11210.13
2023-04-25T03:44:49.327Z,-11209.97
2023-04-25T03:47:55.626Z,-11214.47
2023-04-25T03:51:01.948Z,-11212.22
2023-04-25T03:54:08.494Z,-11215.88
2023-04-25T03:57:16.558Z,-11209.28
2023-04-25T04:00:23.336Z,-11210.25
2023-04-25T04:03:29.864Z,-11213.06
2023-04-25T04:06:37.488Z,-11210.41
2023-04-25T04:09:43.907Z,-11211.38
2023-04-25T04:12:51.676Z,-11208.00
2023-04-25T04:15:58.677Z,-11207.72
2023-04-25T04:19:05.382Z,-11211.94
2023-04-25T04:22:11.497Z,-11217.00
2023-04-25T04:25:17.666Z,-11221.38
2023-04-25T04:28:26.438Z,-11221.78
2023-04-25T04:31:33.873Z,-11219.69
2023-04-25T04:34:40.400Z,-11219.81
2023-04-25T04:37:46.903Z,-11215.31
2023-04-25T04:40:53.621Z,-11217.56
2023-04-25T04:44:02.259Z,-11221.66
2023-04-25T04:47:08.833Z,-11224.88
2023-04-25T04:50:16.053Z,-11227.97
2023-04-25T04:53:22.325Z,-11224.31
2023-04-25T04:56:29.333Z,-11215.19
2023-04-25T04:59:37.637Z,-11226.00
2023-04-25T05:02:43.894Z,-11224.88
2023-04-25T05:05:50.270Z,-11231.34
2023-04-25T05:08:56.617Z,-11238.66
2023-04-25T05:12:03.227Z,-11231.91
2023-04-25T05:15:11.988Z,-11236.84
2023-04-25T05:18:18.331Z,-11231.34
2023-04-25T05:21:24.580Z,-11239.22
2023-04-25T05:24:31.611Z,-11237.56
2023-04-25T05:27:38.355Z,-11240.06
2023-04-25T05:30:45.996Z,-11237.56
2023-04-25T05:33:52.725Z,-11238.81
2023-04-25T05:36:59.270Z,-11237.84
2023-04-25T05:40:07.840Z,-11237.00
2023-04-25T05:43:14.212Z,-11238.25
2023-04-25T05:46:22.186Z,-11241.34
2023-04-25T05:49:28.814Z,-11239.38
2023-04-25T05:52:35.760Z,-11230.50
2023-04-25T05:55:42.216Z,-11239.78
2023-04-25T05:58:48.667Z,-11225.72
2023-04-25T06:01:56.293Z,-11245.16
2023-04-25T06:05:04.759Z,-11273.28
2023-04-25T06:08:11.620Z,-11298.63
2023-04-25T06:11:17.564Z,-11264.84
2023-04-25T06:14:27.259Z,-11258.66
2023-04-25T06:17:36.769Z,-11294.69
2023-04-25T06:20:43.327Z,-11319.87
2023-04-25T06:23:49.606Z,-11316.66
2023-04-25T06:26:56.903Z,-11316.09
2023-04-25T06:30:03.104Z,-11336.22
2023-04-25T06:33:10.911Z,-11352.56
2023-04-25T06:36:17.134Z,-11337.91
2023-04-25T06:39:24.450Z,-11324.53
2023-04-25T06:42:30.571Z,-11340.88
2023-04-25T06:45:36.710Z,-11337.06
2023-04-25T06:48:44.335Z,-11339.31
2023-04-25T06:51:50.832Z,-11307.34
2023-04-25T06:54:57.170Z,-11330.59
2023-04-25T06:58:04.397Z,-11337.91
2023-04-25T07:01:10.990Z,-11327.34
2023-04-25T07:04:19.127Z,-11317.06
2023-04-25T07:07:25.964Z,-11317.34
2023-04-25T07:10:32.393Z,-11298.34
2023-04-25T07:13:38.788Z,-11298.91
2023-04-25T07:16:45.261Z,-11304.53
2023-04-25T07:19:53.148Z,-11309.75
2023-04-25T07:22:59.788Z,-11314.41
2023-04-25T07:26:06.627Z,-11311.00
2023-04-25T07:29:13.199Z,-11317.63
2023-04-25T07:32:19.190Z,-11326.66
2023-04-25T07:35:26.996Z,-11334.38
2023-04-25T07:38:33.168Z,-11343.69
2023-04-25T07:41:39.556Z,-11344.81
2023-04-25T07:44:45.646Z,-11355.50
2023-04-25T07:47:51.672Z,-11365.81
2023-04-25T07:50:59.600Z,-11356.38
2023-04-25T07:54:06.717Z,-11354.81
2023-04-25T07:57:15.114Z,-11352.84
2023-04-25T08:00:22.131Z,-11347.91
2023-04-25T08:03:28.558Z,-11344.38
2023-04-25T08:06:37.295Z,-11347.50
2023-04-25T08:09:43.771Z,-11375.81
2023-04-25T08:12:49.977Z,-11413.56
2023-04-25T08:15:56.904Z,-11442.19
2023-04-25T08:19:03.223Z,-11429.09
2023-04-25T08:22:10.912Z,-11405.13
2023-04-25T08:25:36.320Z,-11410.47
2023-04-25T08:28:42.735Z,-11364.81
2023-04-25T08:31:49.683Z,-11352.13
2023-04-25T08:34:56.535Z,-11382.84
2023-04-25T08:38:04.161Z,-11364.09
2023-04-25T08:41:13.434Z,-11380.03
2023-04-25T08:44:19.561Z,-11412.03
2023-04-25T08:47:26.825Z,-11430.50
2023-04-25T08:50:33.510Z,-11447.69
2023-04-25T08:53:43.974Z,-11429.78
2023-04-25T08:56:50.653Z,-11443.75
2023-04-25T08:59:57.656Z,-11418.50
2023-04-25T09:03:04.504Z,-11419.78
2023-04-25T09:06:13.629Z,-11421.19
2023-04-25T09:09:21.787Z,-11409.91
2023-04-25T09:12:29.220Z,-11448.94
2023-04-25T09:15:35.590Z,-11421.19
2023-04-25T09:18:48.277Z,-11415.12
2023-04-25T09:21:56.952Z,-11436.13
2023-04-25T09:25:10.364Z,-11446.28
2023-04-25T09:28:16.649Z,-11447.97
2023-04-25T09:31:26.477Z,-11445.72
2023-04-25T09:34:42.445Z,-11432.47
2023-04-25T09:37:48.526Z,-11441.75
2023-04-25T09:40:56.761Z,-11406.81
2023-04-25T09:44:03.651Z,-11442.47
2023-04-25T09:47:12.829Z,-11499.03
2023-04-25T09:50:20.615Z,-11455.59
2023-04-25T09:53:26.923Z,-11453.19
2023-04-25T09:56:38.736Z,-11468.00
2023-04-25T09:59:47.254Z,-11493.25
2023-04-25T10:02:55.126Z,-11492.25
2023-04-25T10:06:04.134Z,-11491.97
2023-04-25T10:09:10.389Z,-11465.72
2023-04-25T10:12:19.199Z,-11468.28
2023-04-25T10:15:25.941Z,-11426.81
2023-04-25T10:18:33.866Z,-11435.28
2023-04-25T10:21:48.662Z,-11491.53
2023-04-25T10:24:55.276Z,-11526.41
2023-04-25T10:28:05.635Z,-11526.41
2023-04-25T10:31:11.930Z,-11477.31
2023-04-25T10:34:18.539Z,-11490.28
2023-04-25T10:37:26.482Z,-11481.25
2023-04-25T10:40:32.887Z,-11535.13
2023-04-25T10:43:42.303Z,-11528.66
2023-04-25T10:46:48.792Z,-11541.63
2023-04-25T10:49:54.608Z,-11536.28
2023-04-25T10:53:17.149Z,-11546.84
2023-04-25T10:56:24.813Z,-11528.94
2023-04-25T10:59:33.392Z,-11507.34
2023-04-25T11:02:44.114Z,-11561.53
2023-04-25T11:05:58.173Z,-11524.56
2023-04-25T11:09:04.874Z,-11539.94
2023-04-25T11:12:13.039Z,-11484.34
2023-04-25T11:15:20.704Z,-11528.22
2023-04-25T11:18:28.996Z,-11490.41
2023-04-25T11:21:35.320Z,-11493.66
2023-04-25T11:24:41.533Z,-11504.66
2023-04-25T11:27:54.324Z,-11481.25
2023-04-25T11:31:02.106Z,-11475.06
2023-04-25T11:34:08.247Z,-11494.94
2023-04-25T11:37:14.711Z,-11507.50
2023-04-25T11:40:21.226Z,-11527.53
2023-04-25T11:43:28.515Z,-11524.41
2023-04-25T11:46:37.814Z,-11477.03
2023-04-25T11:49:44.137Z,-11443.75
2023-04-25T11:52:51.511Z,-11436.56
2023-04-25T11:55:57.651Z,-11421.75
2023-04-25T11:59:04.970Z,-11444.59
2023-04-25T12:02:26.715Z,-11430.63
2023-04-25T12:05:35.439Z,-11444.31
2023-04-25T12:09:01.581Z,-11440.78
2023-04-25T12:12:12.118Z,-11438.38
2023-04-25T12:15:20.624Z,-11429.09
2023-04-25T12:18:29.240Z,-11439.50
2023-04-25T12:21:38.911Z,-11434.72
2023-04-25T12:24:50.260Z,-11428.81
2023-04-25T12:27:56.623Z,-11450.22
2023-04-25T12:31:04.366Z,-11416.94
2023-04-25T12:34:12.190Z,-11419.50
2023-04-25T12:37:18.601Z,-11424.84
2023-04-25T12:40:24.919Z,-11427.09
2023-04-25T12:43:31.592Z,-11433.31
2023-04-25T12:46:38.333Z,-11433.31
2023-04-25T12:49:46.441Z,-11435.97
2023-04-25T12:52:53.095Z,-11441.63
2023-04-25T12:55:59.489Z,-11430.50
2023-04-25T12:59:05.886Z,-11427.66
2023-04-25T13:02:12.349Z,-11446.00
2023-04-25T13:05:19.950Z,-11451.34
2023-04-25T13:08:26.204Z,-11443.47
2023-04-25T13:11:32.652Z,-11438.66
2023-04-25T13:14:38.884Z,-11452.75
2023-04-25T13:17:45.236Z,-11441.19
2023-04-25T13:20:52.773Z,-11443.59
2023-04-25T13:23:59.161Z,-11443.19
2023-04-25T13:27:05.931Z,-11430.78
2023-04-25T13:30:12.600Z,-11415.81
2023-04-25T13:33:18.781Z,-11405.69
2023-04-25T13:36:27.036Z,-11369.03
2023-04-25T13:39:33.762Z,-11353.25
2023-04-25T13:42:41.307Z,-11358.06
2023-04-25T13:45:48.383Z,-11340.88
2023-04-25T13:48:59.682Z,-11331.44
2023-04-25T13:52:10.566Z,-11328.06
2023-04-25T13:55:16.776Z,-11331.84
2023-04-25T13:58:23.831Z,-11323.41
2023-04-25T14:01:31.663Z,-11311.28
2023-04-25T14:04:38.000Z,-11316.94
2023-04-25T14:07:45.384Z,-11314.41
2023-04-25T14:10:51.328Z,-11317.06
2023-04-25T14:13:57.744Z,-11311.44
2023-04-25T14:17:04.144Z,-11357.63
2023-04-25T14:20:12.439Z,-11365.53
2023-04-25T14:23:19.891Z,-11349.31
2023-04-25T14:26:26.113Z,-11368.75
2023-04-25T14:29:32.575Z,-11358.34
2023-04-25T14:32:38.580Z,-11379.47
2023-04-25T14:35:44.720Z,-11389.19
2023-04-25T14:38:52.153Z,-11353.41
2023-04-25T14:41:58.921Z,-11358.06
2023-04-25T14:45:05.889Z,-11337.78
2023-04-25T14:48:12.349Z,-11340.88
2023-04-25T14:51:18.525Z,-11340.72
2023-04-25T14:54:26.730Z,-11334.94
2023-04-25T14:57:32.723Z,-11337.78
2023-04-25T15:00:39.312Z,-11334.66
2023-04-25T15:03:45.504Z,-11338.34
2023-04-25T15:06:52.254Z,-11330.16
2023-04-25T15:10:00.276Z,-11330.88
2023-04-25T15:13:06.764Z,-11332.41
2023-04-25T15:16:13.247Z,-11335.50
2023-04-25T15:19:19.520Z,-11331.28
2023-04-25T15:22:25.572Z,-11324.94
2023-04-25T15:25:33.415Z,-11341.44
2023-04-25T15:28:39.938Z,-11334.38
2023-04-25T15:31:46.498Z,-11324.25
2023-04-25T15:34:52.832Z,-11316.66
2023-04-25T15:37:59.068Z,-11328.34
2023-04-25T15:41:07.460Z,-11317.06
2023-04-25T15:44:13.862Z,-11319.87
2023-04-25T15:47:20.170Z,-11324.38
2023-04-25T15:50:26.524Z,-11304.13
2023-04-25T15:53:32.512Z,-11306.38
2023-04-25T15:56:40.296Z,-11320.88
2023-04-25T15:59:46.524Z,-11311.16
2023-04-25T16:02:52.919Z,-11304.53
2023-04-25T16:05:59.685Z,-11309.03
2023-04-25T16:09:06.801Z,-11305.25
2023-04-25T16:12:15.373Z,-11309.59
2023-04-25T16:15:21.770Z,-11316.09
2023-04-25T16:18:28.058Z,-11315.53
2023-04-25T16:21:34.402Z,-11317.78
2023-04-25T16:24:40.576Z,-11315.53
2023-04-25T16:27:48.414Z,-11306.94
2023-04-25T16:30:54.728Z,-11311.56
2023-04-25T16:34:01.245Z,-11312.00
2023-04-25T16:37:07.637Z,-11310.44
2023-04-25T16:40:14.755Z,-11298.63
2023-04-25T16:43:22.473Z,-11304.53
2023-04-25T16:46:28.755Z,-11303.84
2023-04-25T16:49:34.954Z,-11308.19
2023-04-25T16:52:42.485Z,-11298.34
2023-04-25T16:55:50.510Z,-11304.81
2023-04-25T16:58:58.278Z,-11293.41
2023-04-25T17:02:04.953Z,-11289.19
2023-04-25T17:05:11.181Z,-11295.66
2023-04-25T17:08:17.231Z,-11281.88
2023-04-25T17:11:23.394Z,-11274.12
2023-04-25T17:14:32.442Z,-11274.41
2023-04-25T17:17:38.502Z,-11269.50
2023-04-25T17:20:44.719Z,-11261.03
2023-04-25T17:23:51.127Z,-11261.88
2023-04-25T17:26:57.544Z,-11257.66
2023-04-25T17:30:06.027Z,-11254.44
2023-04-25T17:33:12.511Z,-11247.81
2023-04-25T17:36:18.757Z,-11246.84
2023-04-25T17:39:25.406Z,-11241.47
2023-04-25T17:42:32.036Z,-11240.63
2023-04-25T17:45:39.981Z,-11244.44
2023-04-25T17:48:46.193Z,-11237.28
2023-04-25T17:51:52.626Z,-11243.19
2023-04-25T17:54:59.181Z,-11249.09
2023-04-25T17:58:05.496Z,-11236.16
2023-04-25T18:01:13.219Z,-11239.09
2023-04-25T18:04:19.732Z,-11236.44
2023-04-25T18:07:25.934Z,-11239.38
2023-04-25T18:10:31.782Z,-11237.84
2023-04-25T18:13:38.766Z,-11249.78
2023-04-25T18:16:46.526Z,-11240.50
2023-04-25T18:19:52.905Z,-11240.50
2023-04-25T18:22:59.194Z,-11232.47
2023-04-25T18:26:05.607Z,-11238.53
2023-04-25T18:29:25.517Z,-11234.75
2023-04-25T18:32:40.014Z,-11239.78
2023-04-25T18:35:57.611Z,-11235.88
2023-04-25T18:39:21.335Z,-11244.03
2023-04-25T18:42:29.504Z,-11247.25
2023-04-25T18:45:35.865Z,-11246.97
2023-04-25T18:48:43.254Z,-11246.84
2023-04-25T18:51:49.377Z,-11242.59
2023-04-25T18:54:55.831Z,-11235.88
2023-04-25T18:58:02.209Z,-11235.03
2023-04-25T19:01:09.170Z,-11231.22
2023-04-25T19:04:17.128Z,-11239.78
2023-04-25T19:07:23.617Z,-11233.88
2023-04-25T19:10:30.078Z,-11227.69
2023-04-25T19:13:36.528Z,-11231.22
2023-04-25T19:16:42.555Z,-11233.88
2023-04-25T19:19:50.094Z,-11233.03
2023-04-25T19:22:56.280Z,-11229.66
2023-04-25T19:26:02.475Z,-11223.75
2023-04-25T19:29:10.623Z,-11220.94
2023-04-25T19:32:16.848Z,-11227.00
2023-04-25T19:35:24.687Z,-11211.66
2023-04-25T19:38:30.820Z,-11209.69
2023-04-25T19:41:39.502Z,-11216.72
2023-04-25T19:44:45.737Z,-11216.88
2023-04-25T19:47:51.791Z,-11221.50
2023-04-25T19:50:59.434Z,-11220.66
2023-04-25T19:54:05.717Z,-11226.28
2023-04-25T19:57:11.958Z,-11209.69
2023-04-25T20:00:20.311Z,-11216.44
2023-04-25T20:03:26.810Z,-11207.72
2023-04-25T20:06:34.415Z,-11210.53
2023-04-25T20:09:40.526Z,-11207.31
2023-04-25T20:12:46.556Z,-11202.38
2023-04-25T20:15:52.892Z,-11217.16
2023-04-25T20:18:59.532Z,-11220.66
2023-04-25T20:22:07.217Z,-11219.41
2023-04-25T20:25:13.686Z,-11221.22
2023-04-25T20:28:22.115Z,-11215.88
2023-04-25T20:31:28.547Z,-11217.44
2023-04-25T20:34:34.807Z,-11215.19
2023-04-25T20:37:42.449Z,-11214.91
2023-04-25T20:40:48.443Z,-11219.53
2023-04-25T20:43:55.448Z,-11211.94
2023-04-25T20:47:01.674Z,-11220.38
2023-04-25T20:50:09.289Z,-11217.44
2023-04-25T20:53:16.916Z,-11209.56
2023-04-25T20:56:22.848Z,-11215.88
2023-04-25T20:59:29.198Z,-11216.72
2023-04-25T21:02:35.820Z,-11211.25
2023-04-25T21:05:42.276Z,-11214.47
2023-04-25T21:08:50.490Z,-11202.66
2023-04-25T21:11:56.849Z,-11208.84
2023-04-25T21:15:04.454Z,-11215.47
2023-04-25T21:18:10.772Z,-11196.91
2023-04-25T21:21:17.299Z,-11205.34
2023-04-25T21:24:26.966Z,-11202.53
2023-04-25T21:27:33.596Z,-11210.53
2023-04-25T21:30:40.094Z,-11210.97
2023-04-25T21:33:46.293Z,-11213.06
2023-04-25T21:36:52.511Z,-11213.63
2023-04-25T21:40:00.313Z,-11211.53
2023-04-25T21:43:07.612Z,-11214.47
2023-04-25T21:49:29.389Z,-11213.50
2023-04-25T21:52:36.819Z,-11208.28
2023-04-25T21:55:45.007Z,-11202.25
2023-04-25T21:58:51.341Z,-11208.72
2023-04-25T22:01:57.845Z,-11208.84
2023-04-25T22:05:03.986Z,-11203.50
2023-04-25T22:08:10.524Z,-11209.97
2023-04-25T22:11:18.486Z,-11207.59
2023-04-25T22:14:26.762Z,-11200.97
2023-04-25T22:17:33.447Z,-11211.66
2023-04-25T22:20:40.128Z,-11208.28
2023-04-25T22:23:46.327Z,-11207.44
2023-04-25T22:26:54.574Z,-11202.66
2023-04-25T22:30:01.135Z,-11209.84
2023-04-25T22:33:07.700Z,-11200.84
2023-04-25T22:36:14.526Z,-11201.97
2023-04-25T22:39:21.085Z,-11198.87
2023-04-25T22:42:28.515Z,-11193.09
2023-04-25T22:45:35.943Z,-11191.13
2023-04-25T22:48:43.812Z,-11186.34
2023-04-25T22:51:54.378Z,-11190.72
2023-04-25T22:55:00.571Z,-11183.41
2023-04-25T22:58:09.530Z,-11189.44
2023-04-25T23:01:18.852Z,-11186.22
2023-04-25T23:04:25.622Z,-11184.09
2023-04-25T23:07:34.073Z,-11185.50
2023-04-25T23:10:40.121Z,-11188.31
2023-04-25T23:13:47.881Z,-11176.50
2023-04-25T23:16:55.461Z,-11183.25
2023-04-25T23:20:01.983Z,-11176.09
2023-04-25T23:23:08.683Z,-11178.06
2023-04-25T23:26:15.463Z,-11177.63
2023-04-25T23:29:23.329Z,-11178.75
2023-04-25T23:32:29.684Z,-11176.94
2023-04-25T23:35:37.301Z,-11174.25
2023-04-25T23:38:43.625Z,-11174.53
2023-04-25T23:41:49.900Z,-11172.88
2023-04-25T23:44:57.741Z,-11173.84
2023-04-25T23:48:04.329Z,-11166.41
2023-04-25T23:51:10.437Z,-11160.50
2023-04-25T23:54:16.657Z,-11158.94
2023-04-25T23:57:22.951Z,-11157.53
